sensor_id;sensor_type;location;lat;lon;timestamp;pressure;altitude;pressure_sealevel;temperature;humidity
7200;BME280;3641;49.082;8.200;2023-04-05T00:02:05;101015.38;;;3.61;55.53
7200;BME280;3641;49.082;8.200;2023-04-05T00:04:36;101013.16;;;3.44;56.42
7200;BME280;3641;49.082;8.200;2023-04-05T00:07:03;101004.81;;;3.13;58.48
7200;BME280;3641;49.082;8.200;2023-04-05T00:09:32;101004.28;;;2.97;59.12
7200;BME280;3641;49.082;8.200;2023-04-05T00:11:58;101011.69;;;3.28;55.70
7200;BME280;3641;49.082;8.200;2023-04-05T00:14:25;101015.38;;;3.27;57.25
7200;BME280;3641;49.082;8.200;2023-04-05T00:16:51;101017.53;;;3.00;57.35
7200;BME280;3641;49.082;8.200;2023-04-05T00:19:18;101004.50;;;2.82;58.86
7200;BME280;3641;49.082;8.200;2023-04-05T00:21:48;101006.81;;;2.76;58.20
7200;BME280;3641;49.082;8.200;2023-04-05T00:24:15;101001.38;;;2.53;59.95
7200;BME280;3641;49.082;8.200;2023-04-05T00:26:41;100991.25;;;2.79;57.92
7200;BME280;3641;49.082;8.200;2023-04-05T00:29:09;100992.88;;;2.82;58.63
7200;BME280;3641;49.082;8.200;2023-04-05T00:31:35;100992.78;;;2.95;61.02
7200;BME280;3641;49.082;8.200;2023-04-05T00:34:02;100995.34;;;2.96;61.30
7200;BME280;3641;49.082;8.200;2023-04-05T00:36:30;100985.56;;;3.06;57.69
7200;BME280;3641;49.082;8.200;2023-04-05T00:38:58;100984.81;;;3.04;57.64
7200;BME280;3641;49.082;8.200;2023-04-05T00:41:24;100985.44;;;3.08;57.93
7200;BME280;3641;49.082;8.200;2023-04-05T00:43:51;100982.63;;;3.21;56.56
7200;BME280;3641;49.082;8.200;2023-04-05T00:46:17;100980.06;;;3.19;57.93
7200;BME280;3641;49.082;8.200;2023-04-05T00:48:43;100984.94;;;3.14;56.80
7200;BME280;3641;49.082;8.200;2023-04-05T00:51:11;100982.09;;;2.82;57.91
7200;BME280;3641;49.082;8.200;2023-04-05T00:53:38;100980.44;;;3.15;55.55
7200;BME280;3641;49.082;8.200;2023-04-05T00:56:07;100984.22;;;3.12;58.36
7200;BME280;3641;49.082;8.200;2023-04-05T00:58:34;100982.34;;;3.01;57.66
7200;BME280;3641;49.082;8.200;2023-04-05T01:01:04;100976.34;;;2.98;57.98
7200;BME280;3641;49.082;8.200;2023-04-05T01:03:40;100975.88;;;3.15;57.51
7200;BME280;3641;49.082;8.200;2023-04-05T01:06:20;100973.16;;;2.93;58.20
7200;BME280;3641;49.082;8.200;2023-04-05T01:08:53;100968.88;;;3.01;56.41
7200;BME280;3641;49.082;8.200;2023-04-05T01:11:23;100960.53;;;3.16;55.67
7200;BME280;3641;49.082;8.200;2023-04-05T01:13:57;100963.22;;;3.04;57.16
7200;BME280;3641;49.082;8.200;2023-04-05T01:16:23;100964.09;;;2.94;59.07
7200;BME280;3641;49.082;8.200;2023-04-05T01:18:50;100965.22;;;3.02;56.07
7200;BME280;3641;49.082;8.200;2023-04-05T01:24:48;100956.94;;;2.34;60.20
7200;BME280;3641;49.082;8.200;2023-04-05T01:27:20;100953.75;;;2.29;60.50
7200;BME280;3641;49.082;8.200;2023-04-05T01:29:59;100948.94;;;2.46;58.86
7200;BME280;3641;49.082;8.200;2023-04-05T01:32:38;100940.44;;;2.39;60.65
7200;BME280;3641;49.082;8.200;2023-04-05T01:35:11;100938.78;;;2.49;60.24
7200;BME280;3641;49.082;8.200;2023-04-05T01:37:41;100937.47;;;2.31;60.80
7200;BME280;3641;49.082;8.200;2023-04-05T01:40:10;100942.25;;;2.27;60.40
7200;BME280;3641;49.082;8.200;2023-04-05T01:42:37;100945.09;;;2.37;59.88
7200;BME280;3641;49.082;8.200;2023-04-05T01:45:06;100945.72;;;2.05;61.05
7200;BME280;3641;49.082;8.200;2023-04-05T01:47:32;100938.09;;;2.34;58.15
7200;BME280;3641;49.082;8.200;2023-04-05T01:49:59;100938.59;;;2.04;61.10
7200;BME280;3641;49.082;8.200;2023-04-05T01:52:25;100945.78;;;2.28;59.41
7200;BME280;3641;49.082;8.200;2023-04-05T01:54:52;100937.22;;;2.23;58.86
7200;BME280;3641;49.082;8.200;2023-04-05T01:57:18;100933.59;;;2.35;59.40
7200;BME280;3641;49.082;8.200;2023-04-05T01:59:44;100938.13;;;2.10;61.29
7200;BME280;3641;49.082;8.200;2023-04-05T02:02:12;100926.47;;;2.34;58.74
7200;BME280;3641;49.082;8.200;2023-04-05T02:04:39;100929.44;;;2.42;58.88
7200;BME280;3641;49.082;8.200;2023-04-05T02:07:06;100922.22;;;2.43;57.91
7200;BME280;3641;49.082;8.200;2023-04-05T02:09:33;100921.50;;;2.16;60.95
7200;BME280;3641;49.082;8.200;2023-04-05T02:11:59;100921.84;;;2.12;61.02
7200;BME280;3641;49.082;8.200;2023-04-05T02:14:26;100919.41;;;2.44;57.07
7200;BME280;3641;49.082;8.200;2023-04-05T02:16:52;100926.63;;;2.08;61.00
7200;BME280;3641;49.082;8.200;2023-04-05T02:19:22;100930.22;;;2.20;58.74
7200;BME280;3641;49.082;8.200;2023-04-05T02:21:50;100926.72;;;2.42;59.15
7200;BME280;3641;49.082;8.200;2023-04-05T02:24:17;100921.91;;;2.23;59.26
7200;BME280;3641;49.082;8.200;2023-04-05T02:26:44;100921.91;;;2.23;60.19
7200;BME280;3641;49.082;8.200;2023-04-05T02:29:10;100915.56;;;2.35;60.96
7200;BME280;3641;49.082;8.200;2023-04-05T02:31:37;100917.19;;;2.38;60.53
7200;BME280;3641;49.082;8.200;2023-04-05T02:34:03;100913.59;;;2.26;59.42
7200;BME280;3641;49.082;8.200;2023-04-05T02:36:34;100922.03;;;2.33;58.79
7200;BME280;3641;49.082;8.200;2023-04-05T02:39:01;100921.84;;;2.12;58.83
7200;BME280;3641;49.082;8.200;2023-04-05T02:41:28;100925.63;;;1.98;59.87
7200;BME280;3641;49.082;8.200;2023-04-05T02:43:55;100929.19;;;2.10;60.24
7200;BME280;3641;49.082;8.200;2023-04-05T02:46:21;100926.41;;;1.87;61.66
7200;BME280;3641;49.082;8.200;2023-04-05T02:48:48;100921.34;;;2.07;60.20
7200;BME280;3641;49.082;8.200;2023-04-05T02:51:14;100921.50;;;2.16;60.41
7200;BME280;3641;49.082;8.200;2023-04-05T02:53:42;100914.34;;;2.28;60.00
7200;BME280;3641;49.082;8.200;2023-04-05T02:56:09;100918.81;;;2.16;61.39
7200;BME280;3641;49.082;8.200;2023-04-05T02:58:35;100915.97;;;2.42;60.98
7200;BME280;3641;49.082;8.200;2023-04-05T03:01:02;100922.34;;;2.17;60.62
7200;BME280;3641;49.082;8.200;2023-04-05T03:03:31;100916.31;;;2.02;61.18
7200;BME280;3641;49.082;8.200;2023-04-05T03:06:02;100909.03;;;2.15;60.10
7200;BME280;3641;49.082;8.200;2023-04-05T03:08:34;100911.72;;;2.15;60.64
7200;BME280;3641;49.082;8.200;2023-04-05T03:11:03;100917.06;;;2.04;62.76
7200;BME280;3641;49.082;8.200;2023-04-05T03:13:30;100913.91;;;2.10;60.57
7200;BME280;3641;49.082;8.200;2023-04-05T03:15:56;100918.44;;;2.10;61.69
7200;BME280;3641;49.082;8.200;2023-04-05T03:18:23;100912.63;;;2.27;59.71
7200;BME280;3641;49.082;8.200;2023-04-05T03:20:51;100911.00;;;2.25;59.29
7200;BME280;3641;49.082;8.200;2023-04-05T03:23:21;100919.31;;;2.22;59.04
7200;BME280;3641;49.082;8.200;2023-04-05T03:25:52;100919.50;;;2.07;58.71
7200;BME280;3641;49.082;8.200;2023-04-05T03:28:20;100918.38;;;1.98;61.55
7200;BME280;3641;49.082;8.200;2023-04-05T03:30:47;100915.84;;;2.08;60.04
7200;BME280;3641;49.082;8.200;2023-04-05T03:33:14;100921.34;;;2.07;59.75
7200;BME280;3641;49.082;8.200;2023-04-05T03:35:41;100917.63;;;2.21;57.98
7200;BME280;3641;49.082;8.200;2023-04-05T03:38:07;100917.47;;;2.11;58.83
7200;BME280;3641;49.082;8.200;2023-04-05T03:40:34;100919.94;;;2.14;58.43
7200;BME280;3641;49.082;8.200;2023-04-05T03:43:00;100920.09;;;2.24;58.18
7200;BME280;3641;49.082;8.200;2023-04-05T03:45:28;100910.16;;;2.24;57.87
7200;BME280;3641;49.082;8.200;2023-04-05T03:47:55;100920.66;;;2.16;58.34
7200;BME280;3641;49.082;8.200;2023-04-05T03:50:22;100915.59;;;2.00;59.96
7200;BME280;3641;49.082;8.200;2023-04-05T03:52:48;100907.66;;;2.10;58.91
7200;BME280;3641;49.082;8.200;2023-04-05T03:55:15;100908.75;;;2.07;57.99
7200;BME280;3641;49.082;8.200;2023-04-05T03:57:42;100913.00;;;1.98;60.77
7200;BME280;3641;49.082;8.200;2023-04-05T04:00:09;100912.53;;;2.05;61.52
7200;BME280;3641;49.082;8.200;2023-04-05T04:02:41;100904.16;;;1.72;62.04
7200;BME280;3641;49.082;8.200;2023-04-05T04:05:08;100909.56;;;1.72;60.50
7200;BME280;3641;49.082;8.200;2023-04-05T04:07:35;100909.16;;;1.90;59.64
7200;BME280;3641;49.082;8.200;2023-04-05T04:10:02;100894.06;;;1.76;60.74
7200;BME280;3641;49.082;8.200;2023-04-05T04:12:28;100895.69;;;1.90;60.15
7200;BME280;3641;49.082;8.200;2023-04-05T04:14:55;100893.13;;;1.88;60.20
7200;BME280;3641;49.082;8.200;2023-04-05T04:17:26;100905.03;;;1.97;59.21
7200;BME280;3641;49.082;8.200;2023-04-05T04:19:55;100903.97;;;1.99;59.04
7200;BME280;3641;49.082;8.200;2023-04-05T04:22:22;100895.03;;;1.75;61.47
7200;BME280;3641;49.082;8.200;2023-04-05T04:24:51;100908.03;;;1.57;63.12
7200;BME280;3641;49.082;8.200;2023-04-05T04:27:17;100906.53;;;1.53;63.41
7200;BME280;3641;49.082;8.200;2023-04-05T04:29:45;100908.53;;;1.86;58.67
7200;BME280;3641;49.082;8.200;2023-04-05T04:32:12;100914.81;;;1.74;61.66
7200;BME280;3641;49.082;8.200;2023-04-05T04:34:39;100907.53;;;1.76;60.70
7200;BME280;3641;49.082;8.200;2023-04-05T04:37:10;100905.63;;;1.89;58.85
7200;BME280;3641;49.082;8.200;2023-04-05T04:39:43;100906.63;;;1.75;59.19
7200;BME280;3641;49.082;8.200;2023-04-05T04:42:11;100898.63;;;1.62;59.44
7200;BME280;3641;49.082;8.200;2023-04-05T04:44:38;100899.91;;;1.70;59.14
7200;BME280;3641;49.082;8.200;2023-04-05T04:47:06;100889.69;;;1.86;57.74
7200;BME280;3641;49.082;8.200;2023-04-05T04:49:37;100882.69;;;1.59;61.04
7200;BME280;3641;49.082;8.200;2023-04-05T04:52:04;100891.09;;;1.68;59.92
7200;BME280;3641;49.082;8.200;2023-04-05T04:54:33;100895.47;;;1.44;60.61
7200;BME280;3641;49.082;8.200;2023-04-05T04:57:00;100903.09;;;1.51;62.14
7200;BME280;3641;49.082;8.200;2023-04-05T04:59:27;100898.63;;;1.25;64.61
7200;BME280;3641;49.082;8.200;2023-04-05T05:01:53;100900.59;;;1.23;62.73
7200;BME280;3641;49.082;8.200;2023-04-05T05:04:20;100895.41;;;1.57;59.99
7200;BME280;3641;49.082;8.200;2023-04-05T05:06:49;100903.16;;;1.62;60.23
7200;BME280;3641;49.082;8.200;2023-04-05T05:09:16;100908.91;;;1.44;61.25
7200;BME280;3641;49.082;8.200;2023-04-05T05:11:44;100910.88;;;1.42;61.82
7200;BME280;3641;49.082;8.200;2023-04-05T05:14:10;100906.75;;;1.50;61.33
7200;BME280;3641;49.082;8.200;2023-04-05T05:16:37;100917.56;;;1.61;60.71
7200;BME280;3641;49.082;8.200;2023-04-05T05:19:03;100913.66;;;1.41;63.17
7200;BME280;3641;49.082;8.200;2023-04-05T05:21:30;100916.38;;;1.41;61.39
7200;BME280;3641;49.082;8.200;2023-04-05T05:23:56;100914.94;;;1.48;61.53
7200;BME280;3641;49.082;8.200;2023-04-05T05:26:23;100922.09;;;1.23;62.96
7200;BME280;3641;49.082;8.200;2023-04-05T05:28:50;100926.28;;;1.27;63.53
7200;BME280;3641;49.082;8.200;2023-04-05T05:31:17;100927.44;;;0.86;65.19
7200;BME280;3641;49.082;8.200;2023-04-05T05:33:43;100932.78;;;0.99;65.50
7200;BME280;3641;49.082;8.200;2023-04-05T05:36:13;100929.44;;;1.21;62.84
7200;BME280;3641;49.082;8.200;2023-04-05T05:38:40;100932.78;;;1.49;60.85
7200;BME280;3641;49.082;8.200;2023-04-05T05:41:07;100935.94;;;1.43;60.96
7200;BME280;3641;49.082;8.200;2023-04-05T05:43:34;100926.78;;;1.45;61.23
7200;BME280;3641;49.082;8.200;2023-04-05T05:46:02;100930.00;;;1.51;60.23
7200;BME280;3641;49.082;8.200;2023-04-05T05:48:28;100931.63;;;1.53;61.95
7200;BME280;3641;49.082;8.200;2023-04-05T05:50:55;100935.50;;;1.49;61.67
7200;BME280;3641;49.082;8.200;2023-04-05T05:53:21;100938.94;;;1.38;62.57
7200;BME280;3641;49.082;8.200;2023-04-05T05:55:48;100933.38;;;1.66;62.20
7200;BME280;3641;49.082;8.200;2023-04-05T05:58:14;100937.69;;;1.68;60.22
7200;BME280;3641;49.082;8.200;2023-04-05T06:00:41;100938.13;;;1.62;61.47
7200;BME280;3641;49.082;8.200;2023-04-05T06:03:09;100938.13;;;1.62;63.64
7200;BME280;3641;49.082;8.200;2023-04-05T06:05:36;100939.44;;;1.56;60.99
7200;BME280;3641;49.082;8.200;2023-04-05T06:08:02;100933.81;;;1.59;61.61
7200;BME280;3641;49.082;8.200;2023-04-05T06:10:29;100935.28;;;1.76;60.49
7200;BME280;3641;49.082;8.200;2023-04-05T06:12:56;100940.31;;;1.81;61.46
7200;BME280;3641;49.082;8.200;2023-04-05T06:15:22;100941.94;;;1.84;60.16
7200;BME280;3641;49.082;8.200;2023-04-05T06:17:48;100934.66;;;1.97;58.94
7200;BME280;3641;49.082;8.200;2023-04-05T06:20:16;100940.31;;;1.81;61.14
7200;BME280;3641;49.082;8.200;2023-04-05T06:22:43;100940.09;;;1.84;60.50
7200;BME280;3641;49.082;8.200;2023-04-05T06:25:09;100939.47;;;1.80;60.88
7200;BME280;3641;49.082;8.200;2023-04-05T06:27:37;100933.16;;;1.93;62.27
7200;BME280;3641;49.082;8.200;2023-04-05T06:30:04;100933.31;;;2.03;60.94
7200;BME280;3641;49.082;8.200;2023-04-05T06:32:31;100940.59;;;1.89;61.43
7200;BME280;3641;49.082;8.200;2023-04-05T06:34:57;100941.66;;;1.99;63.05
7200;BME280;3641;49.082;8.200;2023-04-05T06:37:25;100941.81;;;2.09;60.21
7200;BME280;3641;49.082;8.200;2023-04-05T06:39:51;100937.47;;;2.31;58.77
7200;BME280;3641;49.082;8.200;2023-04-05T06:42:18;100941.63;;;2.24;59.46
7200;BME280;3641;49.082;8.200;2023-04-05T06:44:44;100938.47;;;2.30;60.70
7200;BME280;3641;49.082;8.200;2023-04-05T06:47:11;100931.56;;;2.14;63.15
7200;BME280;3641;49.082;8.200;2023-04-05T06:49:37;100935.94;;;2.40;61.18
7200;BME280;3641;49.082;8.200;2023-04-05T06:52:04;100938.34;;;2.31;62.24
7200;BME280;3641;49.082;8.200;2023-04-05T06:54:32;100943.44;;;2.47;60.80
7200;BME280;3641;49.082;8.200;2023-04-05T06:56:59;100939.94;;;2.34;62.33
7200;BME280;3641;49.082;8.200;2023-04-05T06:59:27;100952.06;;;2.28;62.79
7200;BME280;3641;49.082;8.200;2023-04-05T07:01:53;100944.28;;;2.48;59.56
7200;BME280;3641;49.082;8.200;2023-04-05T07:04:20;100938.69;;;2.62;60.45
7200;BME280;3641;49.082;8.200;2023-04-05T07:06:47;100941.09;;;2.43;61.81
7200;BME280;3641;49.082;8.200;2023-04-05T07:09:13;100941.00;;;2.67;61.70
7200;BME280;3641;49.082;8.200;2023-04-05T07:11:41;100943.25;;;2.73;61.30
7200;BME280;3641;49.082;8.200;2023-04-05T07:14:07;100934.28;;;2.72;60.46
7200;BME280;3641;49.082;8.200;2023-04-05T07:16:34;100937.38;;;2.90;59.55
7200;BME280;3641;49.082;8.200;2023-04-05T07:19:00;100928.53;;;3.00;60.13
7200;BME280;3641;49.082;8.200;2023-04-05T07:21:30;100925.22;;;3.07;58.92
7200;BME280;3641;49.082;8.200;2023-04-05T07:23:56;100926.84;;;2.87;59.14
7200;BME280;3641;49.082;8.200;2023-04-05T07:26:25;100921.91;;;2.81;58.87
7200;BME280;3641;49.082;8.200;2023-04-05T07:28:52;100928.66;;;2.98;58.68
7200;BME280;3641;49.082;8.200;2023-04-05T07:31:19;100925.47;;;2.82;59.40
7200;BME280;3641;49.082;8.200;2023-04-05T07:33:45;100931.00;;;3.03;58.83
7200;BME280;3641;49.082;8.200;2023-04-05T07:36:12;100931.88;;;3.03;59.45
7200;BME280;3641;49.082;8.200;2023-04-05T07:38:38;100931.50;;;3.08;57.70
7200;BME280;3641;49.082;8.200;2023-04-05T07:41:05;100931.50;;;3.19;57.36
7200;BME280;3641;49.082;8.200;2023-04-05T07:43:32;100934.22;;;3.08;57.81
7200;BME280;3641;49.082;8.200;2023-04-05T07:46:03;100939.22;;;3.35;57.46
7200;BME280;3641;49.082;8.200;2023-04-05T07:48:29;100933.69;;;3.48;56.84
7200;BME280;3641;49.082;8.200;2023-04-05T07:51:02;100936.16;;;3.40;56.99
7200;BME280;3641;49.082;8.200;2023-04-05T07:53:28;100939.34;;;3.34;57.60
7200;BME280;3641;49.082;8.200;2023-04-05T07:55:54;100930.34;;;3.44;57.76
7200;BME280;3641;49.082;8.200;2023-04-05T07:58:24;100936.13;;;3.62;57.19
7200;BME280;3641;49.082;8.200;2023-04-05T08:00:50;100932.41;;;3.63;56.75
7200;BME280;3641;49.082;8.200;2023-04-05T08:03:19;100938.78;;;3.74;56.19
7200;BME280;3641;49.082;8.200;2023-04-05T08:05:45;100935.22;;;3.73;54.98
7200;BME280;3641;49.082;8.200;2023-04-05T08:08:12;100930.78;;;3.84;55.13
7200;BME280;3641;49.082;8.200;2023-04-05T08:10:38;100935.84;;;3.77;54.29
7200;BME280;3641;49.082;8.200;2023-04-05T08:13:05;100935.41;;;3.93;54.35
7200;BME280;3641;49.082;8.200;2023-04-05T08:15:32;100927.09;;;3.85;54.34
7200;BME280;3641;49.082;8.200;2023-04-05T08:18:02;100925.16;;;3.75;54.72
7200;BME280;3641;49.082;8.200;2023-04-05T08:20:33;100933.09;;;3.88;53.46
7200;BME280;3641;49.082;8.200;2023-04-05T08:23:03;100927.47;;;4.12;54.50
7200;BME280;3641;49.082;8.200;2023-04-05T08:25:29;100932.13;;;4.22;54.06
7200;BME280;3641;49.082;8.200;2023-04-05T08:27:56;100932.53;;;4.38;52.92
7200;BME280;3641;49.082;8.200;2023-04-05T08:30:22;100930.06;;;4.35;53.44
7200;BME280;3641;49.082;8.200;2023-04-05T08:32:48;100922.69;;;4.37;52.92
7200;BME280;3641;49.082;8.200;2023-04-05T08:35:15;100928.44;;;4.44;53.19
7200;BME280;3641;49.082;8.200;2023-04-05T08:37:43;100926.78;;;4.31;53.19
7200;BME280;3641;49.082;8.200;2023-04-05T08:40:12;100932.25;;;4.41;53.18
7200;BME280;3641;49.082;8.200;2023-04-05T08:42:41;100927.59;;;4.64;53.01
7200;BME280;3641;49.082;8.200;2023-04-05T08:45:13;100927.88;;;4.61;53.15
7200;BME280;3641;49.082;8.200;2023-04-05T08:47:41;100928.66;;;4.52;53.94
7200;BME280;3641;49.082;8.200;2023-04-05T08:50:09;100930.44;;;4.63;53.73
7200;BME280;3641;49.082;8.200;2023-04-05T08:52:38;100933.06;;;4.74;53.16
7200;BME280;3641;49.082;8.200;2023-04-05T08:55:08;100921.41;;;4.83;53.97
7200;BME280;3641;49.082;8.200;2023-04-05T08:57:36;100922.38;;;5.03;53.52
7200;BME280;3641;49.082;8.200;2023-04-05T09:00:08;100920.19;;;4.87;53.10
7200;BME280;3641;49.082;8.200;2023-04-05T09:02:36;100927.13;;;5.11;53.20
7200;BME280;3641;49.082;8.200;2023-04-05T09:05:08;100922.22;;;4.95;52.21
7200;BME280;3641;49.082;8.200;2023-04-05T09:07:35;100929.53;;;5.04;53.17
7200;BME280;3641;49.082;8.200;2023-04-05T09:10:04;100916.94;;;4.94;50.28
7200;BME280;3641;49.082;8.200;2023-04-05T09:12:34;100916.31;;;5.11;51.99
7200;BME280;3641;49.082;8.200;2023-04-05T09:15:01;100919.06;;;5.21;51.59
7200;BME280;3641;49.082;8.200;2023-04-05T09:17:28;100912.97;;;5.28;51.77
7200;BME280;3641;49.082;8.200;2023-04-05T09:19:56;100914.19;;;5.15;50.47
7200;BME280;3641;49.082;8.200;2023-04-05T09:22:22;100914.31;;;5.13;49.97
7200;BME280;3641;49.082;8.200;2023-04-05T09:24:49;100919.63;;;5.24;50.75
7200;BME280;3641;49.082;8.200;2023-04-05T09:27:17;100919.28;;;5.49;49.99
7200;BME280;3641;49.082;8.200;2023-04-05T09:29:45;100922.78;;;5.80;48.58
7200;BME280;3641;49.082;8.200;2023-04-05T09:32:13;100914.91;;;5.57;47.95
7200;BME280;3641;49.082;8.200;2023-04-05T09:34:41;100913.75;;;5.60;49.18
7200;BME280;3641;49.082;8.200;2023-04-05T09:37:12;100907.34;;;5.61;47.99
7200;BME280;3641;49.082;8.200;2023-04-05T09:39:39;100909.78;;;5.83;48.39
7200;BME280;3641;49.082;8.200;2023-04-05T09:42:07;100900.00;;;6.02;49.24
7200;BME280;3641;49.082;8.200;2023-04-05T09:44:52;100898.44;;;5.99;48.50
7200;BME280;3641;49.082;8.200;2023-04-05T09:47:21;100909.28;;;6.09;47.27
7200;BME280;3641;49.082;8.200;2023-04-05T09:49:49;100903.56;;;6.03;47.65
7200;BME280;3641;49.082;8.200;2023-04-05T09:52:19;100897.31;;;6.02;46.34
7200;BME280;3641;49.082;8.200;2023-04-05T09:54:46;100896.25;;;5.93;47.43
7200;BME280;3641;49.082;8.200;2023-04-05T09:57:14;100899.59;;;5.97;47.55
7200;BME280;3641;49.082;8.200;2023-04-05T09:59:41;100896.19;;;6.14;46.73
7200;BME280;3641;49.082;8.200;2023-04-05T10:02:09;100886.72;;;6.28;47.42
7200;BME280;3641;49.082;8.200;2023-04-05T10:04:39;100895.97;;;6.55;47.43
7200;BME280;3641;49.082;8.200;2023-04-05T10:07:08;100888.97;;;6.62;45.02
7200;BME280;3641;49.082;8.200;2023-04-05T10:09:35;100889.41;;;6.58;44.97
7200;BME280;3641;49.082;8.200;2023-04-05T10:12:02;100887.50;;;6.78;44.89
7200;BME280;3641;49.082;8.200;2023-04-05T10:14:29;100886.50;;;7.16;44.92
7200;BME280;3641;49.082;8.200;2023-04-05T10:16:59;100892.59;;;7.28;43.52
7200;BME280;3641;49.082;8.200;2023-04-05T10:19:43;100888.03;;;7.56;43.03
7200;BME280;3641;49.082;8.200;2023-04-05T10:22:14;100887.44;;;7.53;45.23
7200;BME280;3641;49.082;8.200;2023-04-05T10:24:48;100885.91;;;7.50;43.51
7200;BME280;3641;49.082;8.200;2023-04-05T10:27:19;100873.59;;;8.10;41.93
7200;BME280;3641;49.082;8.200;2023-04-05T10:29:50;100878.44;;;7.98;40.13
7200;BME280;3641;49.082;8.200;2023-04-05T10:32:23;100874.91;;;8.06;45.46
7200;BME280;3641;49.082;8.200;2023-04-05T10:35:06;100871.66;;;8.20;39.42
7200;BME280;3641;49.082;8.200;2023-04-05T10:37:40;100863.94;;;8.33;38.91
7200;BME280;3641;49.082;8.200;2023-04-05T10:40:13;100860.91;;;8.36;45.19
7200;BME280;3641;49.082;8.200;2023-04-05T10:42:45;100859.72;;;8.39;42.19
7200;BME280;3641;49.082;8.200;2023-04-05T10:45:16;100852.50;;;8.74;40.71
7200;BME280;3641;49.082;8.200;2023-04-05T10:47:46;100854.59;;;8.80;41.87
7200;BME280;3641;49.082;8.200;2023-04-05T10:50:20;100853.34;;;8.66;39.91
7200;BME280;3641;49.082;8.200;2023-04-05T10:52:48;100845.97;;;8.93;44.67
7200;BME280;3641;49.082;8.200;2023-04-05T10:55:15;100848.19;;;8.89;40.74
7200;BME280;3641;49.082;8.200;2023-04-05T10:57:42;100849.94;;;8.99;41.43
7200;BME280;3641;49.082;8.200;2023-04-05T11:00:11;100844.84;;;9.04;44.35
7200;BME280;3641;49.082;8.200;2023-04-05T11:02:38;100841.81;;;9.15;44.98
7200;BME280;3641;49.082;8.200;2023-04-05T11:05:06;100839.25;;;9.14;40.11
7200;BME280;3641;49.082;8.200;2023-04-05T11:07:44;100829.75;;;9.18;37.67
7200;BME280;3641;49.082;8.200;2023-04-05T11:10:16;100838.56;;;9.62;40.84
7200;BME280;3641;49.082;8.200;2023-04-05T11:13:01;100836.25;;;10.09;40.34
7200;BME280;3641;49.082;8.200;2023-04-05T11:15:29;100838.13;;;10.16;42.12
7200;BME280;3641;49.082;8.200;2023-04-05T11:18:01;100824.81;;;9.97;38.68
7200;BME280;3641;49.082;8.200;2023-04-05T11:20:39;100830.41;;;9.62;39.73
7200;BME280;3641;49.082;8.200;2023-04-05T11:23:07;100820.00;;;9.74;41.66
7200;BME280;3641;49.082;8.200;2023-04-05T11:25:36;100819.69;;;9.86;42.35
7200;BME280;3641;49.082;8.200;2023-04-05T11:28:04;100816.78;;;9.71;39.46
7200;BME280;3641;49.082;8.200;2023-04-05T11:30:47;100825.63;;;9.73;39.28
7200;BME280;3641;49.082;8.200;2023-04-05T11:33:53;100813.88;;;9.72;39.13
7200;BME280;3641;49.082;8.200;2023-04-05T11:36:31;100819.09;;;9.41;36.97
7200;BME280;3641;49.082;8.200;2023-04-05T11:39:24;100816.59;;;9.56;38.82
7200;BME280;3641;49.082;8.200;2023-04-05T11:41:58;100812.34;;;9.70;41.29
7200;BME280;3641;49.082;8.200;2023-04-05T11:44:25;100804.47;;;9.42;38.09
7200;BME280;3641;49.082;8.200;2023-04-05T11:46:52;100802.28;;;9.62;40.11
7200;BME280;3641;49.082;8.200;2023-04-05T11:49:20;100803.81;;;9.64;40.89
7200;BME280;3641;49.082;8.200;2023-04-05T11:51:47;100803.50;;;9.84;39.38
7200;BME280;3641;49.082;8.200;2023-04-05T11:54:28;100803.66;;;9.82;41.50
7200;BME280;3641;49.082;8.200;2023-04-05T11:56:55;100802.16;;;9.80;38.60
7200;BME280;3641;49.082;8.200;2023-04-05T11:59:27;100800.97;;;9.91;38.92
7200;BME280;3641;49.082;8.200;2023-04-05T12:01:57;100812.72;;;9.91;38.23
7200;BME280;3641;49.082;8.200;2023-04-05T12:04:24;100799.75;;;9.93;41.41
7200;BME280;3641;49.082;8.200;2023-04-05T12:07:12;100789.53;;;10.04;39.73
7200;BME280;3641;49.082;8.200;2023-04-05T12:09:59;100792.09;;;9.80;38.36
7200;BME280;3641;49.082;8.200;2023-04-05T12:12:26;100797.69;;;9.95;40.36
7200;BME280;3641;49.082;8.200;2023-04-05T12:14:58;100798.75;;;9.94;37.22
7200;BME280;3641;49.082;8.200;2023-04-05T12:17:39;100786.13;;;9.85;37.34
7200;BME280;3641;49.082;8.200;2023-04-05T12:20:07;100793.78;;;9.90;37.71
7200;BME280;3641;49.082;8.200;2023-04-05T12:22:35;100791.91;;;9.74;37.74
7200;BME280;3641;49.082;8.200;2023-04-05T12:25:04;100783.06;;;9.80;39.63
7200;BME280;3641;49.082;8.200;2023-04-05T12:27:31;100775.38;;;9.84;39.00
7200;BME280;3641;49.082;8.200;2023-04-05T12:30:13;100769.25;;;9.98;38.13
7200;BME280;3641;49.082;8.200;2023-04-05T12:32:40;100769.41;;;9.96;35.74
7200;BME280;3641;49.082;8.200;2023-04-05T12:35:10;100768.03;;;10.17;37.74
7200;BME280;3641;49.082;8.200;2023-04-05T12:37:37;100762.09;;;10.05;35.86
7200;BME280;3641;49.082;8.200;2023-04-05T12:40:07;100764.97;;;9.95;36.95
7200;BME280;3641;49.082;8.200;2023-04-05T12:42:34;100771.75;;;10.24;39.91
7200;BME280;3641;49.082;8.200;2023-04-05T12:45:02;100768.34;;;10.30;40.07
7200;BME280;3641;49.082;8.200;2023-04-05T12:47:29;100768.19;;;10.24;36.40
7200;BME280;3641;49.082;8.200;2023-04-05T12:49:55;100769.41;;;10.13;39.41
7200;BME280;3641;49.082;8.200;2023-04-05T12:52:25;100761.38;;;10.28;39.47
7200;BME280;3641;49.082;8.200;2023-04-05T12:54:52;100760.19;;;10.14;39.95
7200;BME280;3641;49.082;8.200;2023-04-05T12:57:29;100746.53;;;10.30;35.57
7200;BME280;3641;49.082;8.200;2023-04-05T12:59:56;100751.63;;;10.42;38.65
7200;BME280;3641;49.082;8.200;2023-04-05T13:02:23;100736.66;;;10.21;33.71
7200;BME280;3641;49.082;8.200;2023-04-05T13:04:49;100743.78;;;10.30;38.00
7200;BME280;3641;49.082;8.200;2023-04-05T13:07:15;100745.19;;;10.34;37.76
7200;BME280;3641;49.082;8.200;2023-04-05T13:09:42;100733.09;;;10.37;35.63
7200;BME280;3641;49.082;8.200;2023-04-05T13:12:08;100730.16;;;10.39;39.56
7200;BME280;3641;49.082;8.200;2023-04-05T13:14:36;100734.41;;;10.49;40.32
7200;BME280;3641;49.082;8.200;2023-04-05T13:17:03;100720.28;;;10.29;35.11
7200;BME280;3641;49.082;8.200;2023-04-05T13:19:29;100725.06;;;10.35;36.86
7200;BME280;3641;49.082;8.200;2023-04-05T13:21:55;100729.97;;;10.48;38.85
7200;BME280;3641;49.082;8.200;2023-04-05T13:24:22;100726.72;;;10.53;37.73
7200;BME280;3641;49.082;8.200;2023-04-05T13:26:48;100726.69;;;10.61;36.28
7200;BME280;3641;49.082;8.200;2023-04-05T13:29:15;100725.91;;;10.36;36.10
7200;BME280;3641;49.082;8.200;2023-04-05T13:31:42;100729.13;;;10.48;35.98